sensor_id;sensor_type;location;lat;lon;timestamp;P1;durP1;ratioP1;P2;durP2;ratioP2
28086;SDS011;15392;48.912;8.380;2022-12-07T00:01:22;4.53;;;4.30;;
28086;SDS011;15392;48.912;8.380;2022-12-07T00:03:51;4.35;;;4.15;;
28086;SDS011;15392;48.912;8.380;2022-12-07T00:06:19;4.60;;;4.40;;
28086;SDS011;15392;48.912;8.380;2022-12-07T00:08:45;4.10;;;3.90;;
28086;SDS011;15392;48.912;8.380;2022-12-07T00:11:13;4.25;;;4.05;;
28086;SDS011;15392;48.912;8.380;2022-12-07T00:13:41;4.18;;;3.97;;
28086;SDS011;15392;48.912;8.380;2022-12-07T00:16:11;4.20;;;4.00;;
28086;SDS011;15392;48.912;8.380;2022-12-07T00:18:41;4.80;;;4.50;;
28086;SDS011;15392;48.912;8.380;2022-12-07T00:21:11;4.65;;;4.35;;
28086;SDS011;15392;48.912;8.380;2022-12-07T00:23:40;4.95;;;4.60;;
28086;SDS011;15392;48.912;8.380;2022-12-07T00:26:18;4.55;;;4.35;;
28086;SDS011;15392;48.912;8.380;2022-12-07T00:28:54;4.70;;;4.50;;
28086;SDS011;15392;48.912;8.380;2022-12-07T00:31:23;4.53;;;4.32;;
28086;SDS011;15392;48.912;8.380;2022-12-07T00:33:51;4.25;;;3.95;;
28086;SDS011;15392;48.912;8.380;2022-12-07T00:36:18;4.72;;;4.53;;
28086;SDS011;15392;48.912;8.380;2022-12-07T00:38:47;4.85;;;4.65;;
28086;SDS011;15392;48.912;8.380;2022-12-07T00:41:14;4.68;;;4.47;;
28086;SDS011;15392;48.912;8.380;2022-12-07T00:43:45;5.18;;;4.95;;
28086;SDS011;15392;48.912;8.380;2022-12-07T00:46:13;4.97;;;4.68;;
28086;SDS011;15392;48.912;8.380;2022-12-07T00:48:40;5.30;;;4.90;;
28086;SDS011;15392;48.912;8.380;2022-12-07T00:51:06;4.95;;;4.75;;
28086;SDS011;15392;48.912;8.380;2022-12-07T00:53:35;5.03;;;4.72;;
28086;SDS011;15392;48.912;8.380;2022-12-07T00:56:05;4.32;;;4.13;;
28086;SDS011;15392;48.912;8.380;2022-12-07T00:58:41;4.93;;;4.63;;
28086;SDS011;15392;48.912;8.380;2022-12-07T01:01:08;4.90;;;4.70;;
28086;SDS011;15392;48.912;8.380;2022-12-07T01:03:36;4.95;;;4.53;;
28086;SDS011;15392;48.912;8.380;2022-12-07T01:06:02;5.10;;;4.80;;
28086;SDS011;15392;48.912;8.380;2022-12-07T01:08:29;4.93;;;4.72;;
28086;SDS011;15392;48.912;8.380;2022-12-07T01:11:02;5.03;;;4.80;;
28086;SDS011;15392;48.912;8.380;2022-12-07T01:13:31;4.82;;;4.63;;
28086;SDS011;15392;48.912;8.380;2022-12-07T01:16:00;4.80;;;4.60;;
28086;SDS011;15392;48.912;8.380;2022-12-07T01:18:28;4.57;;;4.25;;
28086;SDS011;15392;48.912;8.380;2022-12-07T01:21:02;4.15;;;3.95;;
28086;SDS011;15392;48.912;8.380;2022-12-07T01:23:34;4.15;;;3.95;;
28086;SDS011;15392;48.912;8.380;2022-12-07T01:26:02;4.82;;;4.53;;
28086;SDS011;15392;48.912;8.380;2022-12-07T01:28:31;4.85;;;4.65;;
28086;SDS011;15392;48.912;8.380;2022-12-07T01:31:01;4.20;;;4.00;;
28086;SDS011;15392;48.912;8.380;2022-12-07T01:33:40;4.05;;;3.85;;
28086;SDS011;15392;48.912;8.380;2022-12-07T01:36:08;4.50;;;4.30;;
28086;SDS011;15392;48.912;8.380;2022-12-07T01:39:00;4.20;;;4.00;;
28086;SDS011;15392;48.912;8.380;2022-12-07T01:41:30;4.25;;;4.05;;
28086;SDS011;15392;48.912;8.380;2022-12-07T01:46:52;3.20;;;3.10;;
28086;SDS011;15392;48.912;8.380;2022-12-07T01:49:33;3.47;;;3.33;;
28086;SDS011;15392;48.912;8.380;2022-12-07T01:52:14;3.83;;;3.63;;
28086;SDS011;15392;48.912;8.380;2022-12-07T01:54:57;3.72;;;3.53;;
28086;SDS011;15392;48.912;8.380;2022-12-07T01:57:28;3.90;;;3.63;;
28086;SDS011;15392;48.912;8.380;2022-12-07T01:59:56;3.90;;;3.70;;
28086;SDS011;15392;48.912;8.380;2022-12-07T02:02:23;3.60;;;3.25;;
28086;SDS011;15392;48.912;8.380;2022-12-07T02:04:53;3.45;;;3.35;;
28086;SDS011;15392;48.912;8.380;2022-12-07T02:07:22;3.33;;;3.22;;
28086;SDS011;15392;48.912;8.380;2022-12-07T02:09:49;3.67;;;3.50;;
28086;SDS011;15392;48.912;8.380;2022-12-07T02:12:15;4.00;;;3.80;;
28086;SDS011;15392;48.912;8.380;2022-12-07T02:14:40;3.33;;;3.22;;
28086;SDS011;15392;48.912;8.380;2022-12-07T02:28:19;3.40;;;3.25;;
28086;SDS011;15392;48.912;8.380;2022-12-07T02:31:14;3.20;;;3.10;;
28086;SDS011;15392;48.912;8.380;2022-12-07T02:33:53;2.90;;;2.80;;
28086;SDS011;15392;48.912;8.380;2022-12-07T02:36:30;3.10;;;3.00;;
28086;SDS011;15392;48.912;8.380;2022-12-07T02:39:08;3.40;;;3.20;;
28086;SDS011;15392;48.912;8.380;2022-12-07T02:41:44;2.78;;;2.67;;
28086;SDS011;15392;48.912;8.380;2022-12-07T02:44:17;3.58;;;3.38;;
28086;SDS011;15392;48.912;8.380;2022-12-07T02:46:56;3.63;;;3.45;;
28086;SDS011;15392;48.912;8.380;2022-12-07T02:49:27;3.80;;;3.60;;
28086;SDS011;15392;48.912;8.380;2022-12-07T02:51:54;4.88;;;4.57;;
28086;SDS011;15392;48.912;8.380;2022-12-07T02:54:20;4.78;;;4.57;;
28086;SDS011;15392;48.912;8.380;2022-12-07T02:56:49;4.60;;;4.30;;
28086;SDS011;15392;48.912;8.380;2022-12-07T03:05:29;4.63;;;4.30;;
28086;SDS011;15392;48.912;8.380;2022-12-07T03:11:14;3.95;;;3.75;;
28086;SDS011;15392;48.912;8.380;2022-12-07T03:14:20;4.47;;;4.28;;
28086;SDS011;15392;48.912;8.380;2022-12-07T03:16:56;4.53;;;4.32;;
28086;SDS011;15392;48.912;8.380;2022-12-07T03:19:28;4.38;;;4.18;;
28086;SDS011;15392;48.912;8.380;2022-12-07T03:21:59;4.38;;;4.18;;
28086;SDS011;15392;48.912;8.380;2022-12-07T03:24:41;4.35;;;4.15;;
28086;SDS011;15392;48.912;8.380;2022-12-07T03:27:20;3.97;;;3.78;;
28086;SDS011;15392;48.912;8.380;2022-12-07T03:32:26;4.00;;;3.80;;
28086;SDS011;15392;48.912;8.380;2022-12-07T03:35:21;4.15;;;3.95;;
28086;SDS011;15392;48.912;8.380;2022-12-07T03:38:05;4.40;;;4.20;;
28086;SDS011;15392;48.912;8.380;2022-12-07T03:41:00;4.18;;;3.97;;
28086;SDS011;15392;48.912;8.380;2022-12-07T03:46:21;3.40;;;3.30;;
28086;SDS011;15392;48.912;8.380;2022-12-07T03:49:12;3.47;;;3.38;;
28086;SDS011;15392;48.912;8.380;2022-12-07T03:55:35;3.20;;;3.10;;
28086;SDS011;15392;48.912;8.380;2022-12-07T03:57:49;3.08;;;2.97;;
28086;SDS011;15392;48.912;8.380;2022-12-07T04:00:19;3.45;;;3.25;;
28086;SDS011;15392;48.912;8.380;2022-12-07T04:02:45;3.22;;;3.13;;
28086;SDS011;15392;48.912;8.380;2022-12-07T04:05:12;3.65;;;3.45;;
28086;SDS011;15392;48.912;8.380;2022-12-07T04:07:38;3.42;;;3.33;;
28086;SDS011;15392;48.912;8.380;2022-12-07T04:10:04;3.78;;;3.58;;
28086;SDS011;15392;48.912;8.380;2022-12-07T04:12:30;3.35;;;3.25;;
28086;SDS011;15392;48.912;8.380;2022-12-07T04:14:56;3.67;;;3.47;;
28086;SDS011;15392;48.912;8.380;2022-12-07T04:17:22;3.35;;;3.25;;
28086;SDS011;15392;48.912;8.380;2022-12-07T04:19:47;3.47;;;3.33;;
28086;SDS011;15392;48.912;8.380;2022-12-07T04:22:13;3.65;;;3.45;;
28086;SDS011;15392;48.912;8.380;2022-12-07T04:24:39;3.45;;;3.30;;
28086;SDS011;15392;48.912;8.380;2022-12-07T04:27:05;3.67;;;3.47;;
28086;SDS011;15392;48.912;8.380;2022-12-07T04:29:30;3.75;;;3.55;;
28086;SDS011;15392;48.912;8.380;2022-12-07T04:31:56;3.15;;;3.05;;
28086;SDS011;15392;48.912;8.380;2022-12-07T04:34:22;3.88;;;3.67;;
28086;SDS011;15392;48.912;8.380;2022-12-07T04:36:48;4.03;;;3.70;;
28086;SDS011;15392;48.912;8.380;2022-12-07T04:39:18;4.28;;;3.97;;
28086;SDS011;15392;48.912;8.380;2022-12-07T04:41:50;4.15;;;3.95;;
28086;SDS011;15392;48.912;8.380;2022-12-07T04:44:17;4.57;;;4.30;;
28086;SDS011;15392;48.912;8.380;2022-12-07T04:46:44;4.20;;;4.00;;
28086;SDS011;15392;48.912;8.380;2022-12-07T04:49:10;4.32;;;4.13;;
28086;SDS011;15392;48.912;8.380;2022-12-07T04:51:37;4.32;;;4.13;;
28086;SDS011;15392;48.912;8.380;2022-12-07T04:54:04;4.32;;;4.13;;
28086;SDS011;15392;48.912;8.380;2022-12-07T04:56:30;4.18;;;3.97;;
28086;SDS011;15392;48.912;8.380;2022-12-07T04:58:55;4.05;;;3.95;;
28086;SDS011;15392;48.912;8.380;2022-12-07T05:01:21;4.45;;;4.25;;
28086;SDS011;15392;48.912;8.380;2022-12-07T05:03:48;4.50;;;4.30;;
28086;SDS011;15392;48.912;8.380;2022-12-07T05:06:14;4.28;;;4.07;;
28086;SDS011;15392;48.912;8.380;2022-12-07T05:08:40;4.32;;;4.13;;
28086;SDS011;15392;48.912;8.380;2022-12-07T05:11:08;4.00;;;3.80;;
28086;SDS011;15392;48.912;8.380;2022-12-07T05:13:55;4.13;;;3.92;;
28086;SDS011;15392;48.912;8.380;2022-12-07T05:16:21;5.60;;;5.30;;
28086;SDS011;15392;48.912;8.380;2022-12-07T05:18:47;4.63;;;4.43;;
28086;SDS011;15392;48.912;8.380;2022-12-07T05:21:12;5.45;;;5.15;;
28086;SDS011;15392;48.912;8.380;2022-12-07T05:23:38;10.07;;;9.40;;
28086;SDS011;15392;48.912;8.380;2022-12-07T05:26:04;8.20;;;7.80;;
28086;SDS011;15392;48.912;8.380;2022-12-07T05:28:30;6.03;;;5.72;;
28086;SDS011;15392;48.912;8.380;2022-12-07T05:30:55;6.38;;;6.07;;
28086;SDS011;15392;48.912;8.380;2022-12-07T05:33:21;6.63;;;6.22;;
28086;SDS011;15392;48.912;8.380;2022-12-07T05:35:47;5.85;;;5.55;;
28086;SDS011;15392;48.912;8.380;2022-12-07T05:38:12;5.00;;;4.70;;
28086;SDS011;15392;48.912;8.380;2022-12-07T05:40:38;5.00;;;4.80;;
28086;SDS011;15392;48.912;8.380;2022-12-07T05:43:04;4.43;;;4.20;;
28086;SDS011;15392;48.912;8.380;2022-12-07T05:45:29;3.95;;;3.75;;
28086;SDS011;15392;48.912;8.380;2022-12-07T05:47:55;3.40;;;3.30;;
28086;SDS011;15392;48.912;8.380;2022-12-07T05:50:21;4.30;;;4.10;;
28086;SDS011;15392;48.912;8.380;2022-12-07T05:52:47;4.65;;;4.45;;
28086;SDS011;15392;48.912;8.380;2022-12-07T05:55:12;4.65;;;4.45;;
28086;SDS011;15392;48.912;8.380;2022-12-07T05:57:38;4.10;;;3.90;;
28086;SDS011;15392;48.912;8.380;2022-12-07T06:00:04;4.50;;;4.30;;
28086;SDS011;15392;48.912;8.380;2022-12-07T06:02:31;4.25;;;4.05;;
28086;SDS011;15392;48.912;8.380;2022-12-07T06:04:56;4.15;;;3.95;;
28086;SDS011;15392;48.912;8.380;2022-12-07T06:07:22;4.22;;;4.03;;
28086;SDS011;15392;48.912;8.380;2022-12-07T06:09:48;4.07;;;3.88;;
28086;SDS011;15392;48.912;8.380;2022-12-07T06:12:13;3.65;;;3.55;;
28086;SDS011;15392;48.912;8.380;2022-12-07T06:14:58;4.82;;;4.53;;
28086;SDS011;15392;48.912;8.380;2022-12-07T06:17:24;4.72;;;4.53;;
28086;SDS011;15392;48.912;8.380;2022-12-07T06:19:50;4.70;;;4.50;;
28086;SDS011;15392;48.912;8.380;2022-12-07T06:22:16;4.63;;;4.43;;
28086;SDS011;15392;48.912;8.380;2022-12-07T06:24:42;4.50;;;4.30;;
28086;SDS011;15392;48.912;8.380;2022-12-07T06:27:08;4.82;;;4.53;;
28086;SDS011;15392;48.912;8.380;2022-12-07T06:29:34;4.60;;;4.40;;
28086;SDS011;15392;48.912;8.380;2022-12-07T06:32:00;5.72;;;5.43;;
28086;SDS011;15392;48.912;8.380;2022-12-07T06:34:26;6.43;;;6.13;;
28086;SDS011;15392;48.912;8.380;2022-12-07T06:36:52;6.10;;;5.80;;
28086;SDS011;15392;48.912;8.380;2022-12-07T06:39:27;5.95;;;5.65;;
28086;SDS011;15392;48.912;8.380;2022-12-07T06:41:54;5.93;;;5.63;;
28086;SDS011;15392;48.912;8.380;2022-12-07T06:44:20;8.50;;;8.10;;
28086;SDS011;15392;48.912;8.380;2022-12-07T06:46:47;6.15;;;5.85;;
28086;SDS011;15392;48.912;8.380;2022-12-07T06:49:14;5.05;;;4.85;;
28086;SDS011;15392;48.912;8.380;2022-12-07T06:51:40;5.45;;;5.13;;
28086;SDS011;15392;48.912;8.380;2022-12-07T06:54:08;5.15;;;4.85;;
28086;SDS011;15392;48.912;8.380;2022-12-07T06:56:39;6.60;;;6.20;;
28086;SDS011;15392;48.912;8.380;2022-12-07T06:59:05;6.55;;;6.15;;
28086;SDS011;15392;48.912;8.380;2022-12-07T07:01:32;7.10;;;6.70;;
28086;SDS011;15392;48.912;8.380;2022-12-07T07:03:59;7.55;;;7.15;;
28086;SDS011;15392;48.912;8.380;2022-12-07T07:06:25;9.15;;;8.35;;
28086;SDS011;15392;48.912;8.380;2022-12-07T07:08:52;8.27;;;7.78;;
28086;SDS011;15392;48.912;8.380;2022-12-07T07:11:17;6.40;;;6.10;;
28086;SDS011;15392;48.912;8.380;2022-12-07T07:13:44;5.28;;;5.07;;
28086;SDS011;15392;48.912;8.380;2022-12-07T07:16:10;6.20;;;5.88;;
28086;SDS011;15392;48.912;8.380;2022-12-07T07:18:36;5.32;;;5.13;;
28086;SDS011;15392;48.912;8.380;2022-12-07T07:21:02;4.43;;;4.22;;
28086;SDS011;15392;48.912;8.380;2022-12-07T07:23:29;4.55;;;4.35;;
28086;SDS011;15392;48.912;8.380;2022-12-07T07:25:55;4.50;;;4.22;;
28086;SDS011;15392;48.912;8.380;2022-12-07T07:28:21;4.53;;;4.32;;
28086;SDS011;15392;48.912;8.380;2022-12-07T07:30:47;4.43;;;4.22;;
28086;SDS011;15392;48.912;8.380;2022-12-07T07:33:12;4.95;;;4.75;;
28086;SDS011;15392;48.912;8.380;2022-12-07T07:35:38;4.95;;;4.75;;
28086;SDS011;15392;48.912;8.380;2022-12-07T07:38:04;3.75;;;3.63;;
28086;SDS011;15392;48.912;8.380;2022-12-07T07:40:30;3.50;;;3.30;;
28086;SDS011;15392;48.912;8.380;2022-12-07T07:42:57;4.00;;;3.80;;
28086;SDS011;15392;48.912;8.380;2022-12-07T07:45:24;4.15;;;3.95;;
28086;SDS011;15392;48.912;8.380;2022-12-07T07:47:51;3.40;;;3.20;;
28086;SDS011;15392;48.912;8.380;2022-12-07T07:50:17;3.83;;;3.70;;
28086;SDS011;15392;48.912;8.380;2022-12-07T07:52:43;3.97;;;3.78;;
28086;SDS011;15392;48.912;8.380;2022-12-07T07:55:10;3.58;;;3.47;;
28086;SDS011;15392;48.912;8.380;2022-12-07T07:57:37;3.40;;;3.20;;
28086;SDS011;15392;48.912;8.380;2022-12-07T08:00:04;3.70;;;3.50;;
28086;SDS011;15392;48.912;8.380;2022-12-07T08:02:34;3.13;;;3.03;;
28086;SDS011;15392;48.912;8.380;2022-12-07T08:05:00;3.35;;;3.25;;
28086;SDS011;15392;48.912;8.380;2022-12-07T08:07:26;4.13;;;3.92;;
28086;SDS011;15392;48.912;8.380;2022-12-07T08:09:53;4.22;;;3.92;;
28086;SDS011;15392;48.912;8.380;2022-12-07T08:12:18;4.07;;;3.85;;
28086;SDS011;15392;48.912;8.380;2022-12-07T08:14:44;4.13;;;3.92;;
28086;SDS011;15392;48.912;8.380;2022-12-07T08:17:10;3.45;;;3.35;;
28086;SDS011;15392;48.912;8.380;2022-12-07T08:19:36;3.97;;;3.72;;
28086;SDS011;15392;48.912;8.380;2022-12-07T08:22:01;4.22;;;3.92;;
28086;SDS011;15392;48.912;8.380;2022-12-07T08:24:27;4.10;;;3.80;;
28086;SDS011;15392;48.912;8.380;2022-12-07T08:26:53;4.05;;;3.85;;
28086;SDS011;15392;48.912;8.380;2022-12-07T08:29:19;4.32;;;4.13;;
28086;SDS011;15392;48.912;8.380;2022-12-07T08:31:45;11.35;;;10.23;;
28086;SDS011;15392;48.912;8.380;2022-12-07T08:34:12;16.85;;;12.98;;
28086;SDS011;15392;48.912;8.380;2022-12-07T08:36:38;8.93;;;8.02;;
28086;SDS011;15392;48.912;8.380;2022-12-07T08:39:04;8.05;;;7.55;;
28086;SDS011;15392;48.912;8.380;2022-12-07T08:41:31;5.45;;;5.15;;
28086;SDS011;15392;48.912;8.380;2022-12-07T08:43:57;5.75;;;5.45;;
28086;SDS011;15392;48.912;8.380;2022-12-07T08:46:28;4.57;;;4.38;;
28086;SDS011;15392;48.912;8.380;2022-12-07T08:49:15;4.50;;;4.10;;
28086;SDS011;15392;48.912;8.380;2022-12-07T08:51:45;4.15;;;3.70;;
28086;SDS011;15392;48.912;8.380;2022-12-07T08:54:12;3.65;;;3.55;;
28086;SDS011;15392;48.912;8.380;2022-12-07T08:56:41;4.00;;;3.80;;
28086;SDS011;15392;48.912;8.380;2022-12-07T08:59:08;4.55;;;4.25;;
28086;SDS011;15392;48.912;8.380;2022-12-07T09:01:34;4.88;;;4.60;;
28086;SDS011;15392;48.912;8.380;2022-12-07T09:04:00;6.65;;;6.30;;
28086;SDS011;15392;48.912;8.380;2022-12-07T09:06:26;6.57;;;6.18;;
28086;SDS011;15392;48.912;8.380;2022-12-07T09:08:54;5.78;;;5.47;;
28086;SDS011;15392;48.912;8.380;2022-12-07T09:11:23;4.85;;;4.65;;
28086;SDS011;15392;48.912;8.380;2022-12-07T09:13:49;5.05;;;4.72;;
28086;SDS011;15392;48.912;8.380;2022-12-07T09:16:14;5.90;;;5.60;;
28086;SDS011;15392;48.912;8.380;2022-12-07T09:18:40;5.78;;;5.47;;
28086;SDS011;15392;48.912;8.380;2022-12-07T09:21:06;6.35;;;5.95;;
28086;SDS011;15392;48.912;8.380;2022-12-07T09:23:32;6.50;;;6.15;;
28086;SDS011;15392;48.912;8.380;2022-12-07T09:26:02;17.45;;;15.88;;
28086;SDS011;15392;48.912;8.380;2022-12-07T09:28:32;12.73;;;11.70;;
28086;SDS011;15392;48.912;8.380;2022-12-07T09:30:58;11.63;;;10.77;;
28086;SDS011;15392;48.912;8.380;2022-12-07T09:33:24;7.88;;;7.40;;
28086;SDS011;15392;48.912;8.380;2022-12-07T09:35:50;8.38;;;7.88;;
28086;SDS011;15392;48.912;8.380;2022-12-07T09:38:17;7.10;;;6.68;;
28086;SDS011;15392;48.912;8.380;2022-12-07T09:40:44;7.75;;;7.25;;
28086;SDS011;15392;48.912;8.380;2022-12-07T09:43:15;5.55;;;5.25;;
28086;SDS011;15392;48.912;8.380;2022-12-07T09:45:46;4.35;;;4.15;;
28086;SDS011;15392;48.912;8.380;2022-12-07T09:50:53;3.70;;;3.50;;
28086;SDS011;15392;48.912;8.380;2022-12-07T09:53:36;3.90;;;3.70;;
28086;SDS011;15392;48.912;8.380;2022-12-07T09:56:03;3.75;;;3.55;;
28086;SDS011;15392;48.912;8.380;2022-12-07T09:58:30;3.40;;;3.20;;
28086;SDS011;15392;48.912;8.380;2022-12-07T10:01:17;4.20;;;4.00;;
28086;SDS011;15392;48.912;8.380;2022-12-07T10:03:48;3.63;;;3.50;;
28086;SDS011;15392;48.912;8.380;2022-12-07T10:06:20;3.55;;;3.45;;
28086;SDS011;15392;48.912;8.380;2022-12-07T10:08:46;3.30;;;3.20;;
28086;SDS011;15392;48.912;8.380;2022-12-07T10:11:12;4.35;;;4.15;;
28086;SDS011;15392;48.912;8.380;2022-12-07T10:16:31;5.20;;;4.85;;
28086;SDS011;15392;48.912;8.380;2022-12-07T10:19:18;3.88;;;3.67;;
28086;SDS011;15392;48.912;8.380;2022-12-07T10:24:39;3.05;;;2.95;;
28086;SDS011;15392;48.912;8.380;2022-12-07T10:27:21;2.90;;;2.80;;
28086;SDS011;15392;48.912;8.380;2022-12-07T10:29:55;2.92;;;2.83;;
28086;SDS011;15392;48.912;8.380;2022-12-07T10:32:27;4.03;;;3.83;;
28086;SDS011;15392;48.912;8.380;2022-12-07T10:35:18;3.55;;;3.35;;
28086;SDS011;15392;48.912;8.380;2022-12-07T10:37:54;3.00;;;2.90;;
28086;SDS011;15392;48.912;8.380;2022-12-07T10:40:31;3.35;;;3.15;;
28086;SDS011;15392;48.912;8.380;2022-12-07T10:43:33;3.13;;;3.03;;
28086;SDS011;15392;48.912;8.380;2022-12-07T10:52:13;3.30;;;3.20;;
28086;SDS011;15392;48.912;8.380;2022-12-07T11:00:35;9.88;;;9.07;;
28086;SDS011;15392;48.912;8.380;2022-12-07T11:03:18;9.80;;;9.00;;
28086;SDS011;15392;48.912;8.380;2022-12-07T11:18:06;4.45;;;4.25;;
28086;SDS011;15392;48.912;8.380;2022-12-07T11:20:58;5.45;;;5.15;;
28086;SDS011;15392;48.912;8.380;2022-12-07T11:24:02;5.70;;;5.40;;
28086;SDS011;15392;48.912;8.380;2022-12-07T11:33:22;12.85;;;11.73;;
28086;SDS011;15392;48.912;8.380;2022-12-07T11:39:07;4.38;;;4.18;;
28086;SDS011;15392;48.912;8.380;2022-12-07T11:45:00;4.13;;;3.92;;
28086;SDS011;15392;48.912;8.380;2022-12-07T11:47:59;3.80;;;3.60;;
28086;SDS011;15392;48.912;8.380;2022-12-07T11:50:41;4.40;;;4.10;;
28086;SDS011;15392;48.912;8.380;2022-12-07T11:53:22;6.18;;;5.85;;
28086;SDS011;15392;48.912;8.380;2022-12-07T11:58:34;10.18;;;9.38;;
28086;SDS011;15392;48.912;8.380;2022-12-07T12:06:45;4.70;;;4.50;;
28086;SDS011;15392;48.912;8.380;2022-12-07T12:09:19;4.45;;;4.25;;
28086;SDS011;15392;48.912;8.380;2022-12-07T12:15:47;10.90;;;10.10;;
28086;SDS011;15392;48.912;8.380;2022-12-07T12:18:51;7.95;;;7.45;;
28086;SDS011;15392;48.912;8.380;2022-12-07T12:21:44;6.10;;;5.63;;
28086;SDS011;15392;48.912;8.380;2022-12-07T12:24:13;5.25;;;4.88;;
28086;SDS011;15392;48.912;8.380;2022-12-07T12:26:51;5.90;;;5.60;;
28086;SDS011;15392;48.912;8.380;2022-12-07T12:29:32;4.60;;;4.40;;
28086;SDS011;15392;48.912;8.380;2022-12-07T12:32:21;4.22;;;4.05;;
28086;SDS011;15392;48.912;8.380;2022-12-07T12:35:20;4.07;;;3.88;;
28086;SDS011;15392;48.912;8.380;2022-12-07T12:37:51;4.13;;;3.92;;
28086;SDS011;15392;48.912;8.380;2022-12-07T12:42:56;4.35;;;4.15;;
28086;SDS011;15392;48.912;8.380;2022-12-07T12:45:23;3.97;;;3.83;;
28086;SDS011;15392;48.912;8.380;2022-12-07T12:50:33;4.68;;;4.47;;
28086;SDS011;15392;48.912;8.380;2022-12-07T12:53:19;4.90;;;4.70;;
28086;SDS011;15392;48.912;8.380;2022-12-07T12:58:37;5.47;;;5.18;;
28086;SDS011;15392;48.912;8.380;2022-12-07T13:07:47;4.70;;;4.40;;
28086;SDS011;15392;48.912;8.380;2022-12-07T13:18:40;5.18;;;4.88;;
28086;SDS011;15392;48.912;8.380;2022-12-07T13:23:36;5.45;;;5.15;;
28086;SDS011;15392;48.912;8.380;2022-12-07T13:26:16;5.55;;;5.22;;
28086;SDS011;15392;48.912;8.380;2022-12-07T13:29:07;5.03;;;4.75;;
28086;SDS011;15392;48.912;8.380;2022-12-07T13:31:39;7.15;;;6.75;;
28086;SDS011;15392;48.912;8.380;2022-12-07T13:34:28;6.45;;;6.05;;
28086;SDS011;15392;48.912;8.380;2022-12-07T13:37:04;6.05;;;5.75;;
28086;SDS011;15392;48.912;8.380;2022-12-07T13:39:59;7.47;;;6.97;;
28086;SDS011;15392;48.912;8.380;2022-12-07T13:42:43;8.45;;;7.85;;
28086;SDS011;15392;48.912;8.380;2022-12-07T13:45:23;11.52;;;10.52;;
28086;SDS011;15392;48.912;8.380;2022-12-07T13:48:20;7.40;;;6.90;;
28086;SDS011;15392;48.912;8.380;2022-12-07T13:50:58;6.50;;;6.10;;
28086;SDS011;15392;48.912;8.380;2022-12-07T13:53:26;6.43;;;6.03;;
28086;SDS011;15392;48.912;8.380;2022-12-07T13:55:58;6.57;;;6.18;;
28086;SDS011;15392;48.912;8.380;2022-12-07T13:58:26;6.55;;;6.15;;
28086;SDS011;15392;48.912;8.380;2022-12-07T14:00:55;6.38;;;5.97;;
28086;SDS011;15392;48.912;8.380;2022-12-07T14:03:26;6.70;;;6.30;;
28086;SDS011;15392;48.912;8.380;2022-12-07T14:06:04;9.10;;;8.35;;
28086;SDS011;15392;48.912;8.380;2022-12-07T14:08:30;8.05;;;7.43;;
28086;SDS011;15392;48.912;8.380;2022-12-07T14:10:56;10.07;;;9.07;;
28086;SDS011;15392;48.912;8.380;2022-12-07T14:13:31;8.32;;;7.82;;
28086;SDS011;15392;48.912;8.380;2022-12-07T14:18:58;7.40;;;6.90;;
28086;SDS011;15392;48.912;8.380;2022-12-07T14:21:27;6.80;;;6.40;;
28086;SDS011;15392;48.912;8.380;2022-12-07T14:24:29;5.95;;;5.65;;
28086;SDS011;15392;48.912;8.380;2022-12-07T14:26:48;5.63;;;5.32;;
28086;SDS011;15392;48.912;8.380;2022-12-07T14:31:50;5.47;;;5.28;;
28086;SDS011;15392;48.912;8.380;2022-12-07T14:34:19;4.85;;;4.63;;
28086;SDS011;15392;48.912;8.380;2022-12-07T14:36:46;5.15;;;4.75;;
28086;SDS011;15392;48.912;8.380;2022-12-07T14:39:11;5.93;;;5.63;;
28086;SDS011;15392;48.912;8.380;2022-12-07T14:41:37;5.45;;;5.15;;
28086;SDS011;15392;48.912;8.380;2022-12-07T14:44:16;5.40;;;5.10;;
28086;SDS011;15392;48.912;8.380;2022-12-07T14:46:44;5.13;;;4.88;;
28086;SDS011;15392;48.912;8.380;2022-12-07T14:49:10;5.85;;;5.55;;
28086;SDS011;15392;48.912;8.380;2022-12-07T14:51:36;6.65;;;6.25;;
28086;SDS011;15392;48.912;8.380;2022-12-07T14:54:05;5.63;;;5.32;;
28086;SDS011;15392;48.912;8.380;2022-12-07T14:56:37;6.70;;;6.38;;
28086;SDS011;15392;48.912;8.380;2022-12-07T14:59:03;6.65;;;6.25;;
28086;SDS011;15392;48.912;8.380;2022-12-07T15:01:29;5.45;;;5.15;;
28086;SDS011;15392;48.912;8.380;2022-12-07T15:03:54;6.15;;;5.85;;
28086;SDS011;15392;48.912;8.380;2022-12-07T15:06:20;6.30;;;6.00;;
28086;SDS011;15392;48.912;8.380;2022-12-07T15:08:46;6.70;;;6.30;;
28086;SDS011;15392;48.912;8.380;2022-12-07T15:11:13;6.07;;;5.78;;
28086;SDS011;15392;48.912;8.380;2022-12-07T15:13:40;5.50;;;5.20;;
28086;SDS011;15392;48.912;8.380;2022-12-07T15:16:24;5.63;;;5.22;;
28086;SDS011;15392;48.912;8.380;2022-12-07T15:18:50;5.50;;;5.20;;
28086;SDS011;15392;48.912;8.380;2022-12-07T15:21:16;6.18;;;5.88;;
28086;SDS011;15392;48.912;8.380;2022-12-07T15:23:42;5.97;;;5.57;;
28086;SDS011;15392;48.912;8.380;2022-12-07T15:26:11;5.43;;;5.13;;
28086;SDS011;15392;48.912;8.380;2022-12-07T15:28:40;5.85;;;5.55;;
28086;SDS011;15392;48.912;8.380;2022-12-07T15:31:16;5.43;;;5.13;;
28086;SDS011;15392;48.912;8.380;2022-12-07T15:33:42;6.38;;;6.07;;
28086;SDS011;15392;48.912;8.380;2022-12-07T15:36:20;6.03;;;5.72;;
28086;SDS011;15392;48.912;8.380;2022-12-07T15:38:49;5.85;;;5.55;;
28086;SDS011;15392;48.912;8.380;2022-12-07T15:41:16;5.05;;;4.80;;
28086;SDS011;15392;48.912;8.380;2022-12-07T15:43:42;5.15;;;4.95;;
28086;SDS011;15392;48.912;8.380;2022-12-07T15:46:31;5.15;;;4.95;;
28086;SDS011;15392;48.912;8.380;2022-12-07T15:48:58;4.25;;;4.05;;
28086;SDS011;15392;48.912;8.380;2022-12-07T15:51:25;4.57;;;4.38;;
28086;SDS011;15392;48.912;8.380;2022-12-07T15:53:51;4.72;;;4.53;;
28086;SDS011;15392;48.912;8.380;2022-12-07T15:56:18;4.50;;;4.20;;
28086;SDS011;15392;48.912;8.380;2022-12-07T15:58:44;4.80;;;4.60;;
28086;SDS011;15392;48.912;8.380;2022-12-07T16:01:13;4.35;;;4.15;;
28086;SDS011;15392;48.912;8.380;2022-12-07T16:03:42;4.72;;;4.43;;
28086;SDS011;15392;48.912;8.380;2022-12-07T16:06:08;4.68;;;4.47;;
28086;SDS011;15392;48.912;8.380;2022-12-07T16:08:34;5.78;;;5.47;;
28086;SDS011;15392;48.912;8.380;2022-12-07T16:11:00;4.90;;;4.60;;
28086;SDS011;15392;48.912;8.380;2022-12-07T16:13:30;4.35;;;4.15;;
28086;SDS011;15392;48.912;8.380;2022-12-07T16:15:56;4.72;;;4.53;;
28086;SDS011;15392;48.912;8.380;2022-12-07T16:18:21;5.40;;;5.10;;
28086;SDS011;15392;48.912;8.380;2022-12-07T16:20:48;5.40;;;5.20;;
28086;SDS011;15392;48.912;8.380;2022-12-07T16:23:14;5.15;;;4.85;;
28086;SDS011;15392;48.912;8.380;2022-12-07T16:25:40;5.15;;;4.85;;
28086;SDS011;15392;48.912;8.380;2022-12-07T16:28:07;5.15;;;4.93;;
28086;SDS011;15392;48.912;8.380;2022-12-07T16:30:33;4.95;;;4.75;;
28086;SDS011;15392;48.912;8.380;2022-12-07T16:32:59;4.90;;;4.70;;
28086;SDS011;15392;48.912;8.380;2022-12-07T16:35:24;4.78;;;4.57;;
28086;SDS011;15392;48.912;8.380;2022-12-07T16:37:50;4.80;;;4.45;;
28086;SDS011;15392;48.912;8.380;2022-12-07T16:40:16;5.07;;;4.78;;
28086;SDS011;15392;48.912;8.380;2022-12-07T16:42:41;5.50;;;5.20;;
28086;SDS011;15392;48.912;8.380;2022-12-07T16:45:07;8.48;;;7.88;;
28086;SDS011;15392;48.912;8.380;2022-12-07T16:47:36;16.50;;;15.00;;
28086;SDS011;15392;48.912;8.380;2022-12-07T16:50:05;17.92;;;16.05;;
28086;SDS011;15392;48.912;8.380;2022-12-07T16:52:32;12.75;;;11.60;;
28086;SDS011;15392;48.912;8.380;2022-12-07T16:54:58;8.90;;;8.30;;
28086;SDS011;15392;48.912;8.380;2022-12-07T16:57:24;7.40;;;6.90;;
28086;SDS011;15392;48.912;8.380;2022-12-07T16:59:51;6.88;;;6.47;;
28086;SDS011;15392;48.912;8.380;2022-12-07T17:02:17;8.02;;;7.53;;
28086;SDS011;15392;48.912;8.380;2022-12-07T17:04:44;6.20;;;5.85;;
28086;SDS011;15392;48.912;8.380;2022-12-07T17:07:09;6.50;;;6.05;;
28086;SDS011;15392;48.912;8.380;2022-12-07T17:09:36;6.40;;;6.10;;